EHRD Airport Information

Runway Information
Runway 06 Length 7218 ft width 148 ft Elevation -15 ft Threshold 656 ft Heading 56
Runway 24 Length 7218 ft Width 148 ft Elevation -15 ft Threshold 656 ft Heading 235
Airport Frequencies
Type A/D Name SCHIPHOL Frequency 121.2 MHZ
Type APP Name APP Frequency 127.025 MHZ
Type ATIS Name ATIS Frequency 110.4 MHZ
Type GND Name GND Frequency 122.175 MHZ
Type TWR Name TWR Frequency 118.2 MHZ
Airport Navaids
Type NDB Name Rotterdam Frequency 351 KHZ
Type VOR-DME Name Rotterdam Frequency 110400 KHZ
Airport Weather Information & NOTAM
ADDS - METARS form results

(0704 UTC 17 January 2023)
Data provider http://aviationweather.gov/metar/data/
 
METAR text: EHRD 170655Z AUTO 24005KT 9999 NSC 00/M02 Q0986 NOSIG
Conditions at: EHRD (ROTTERDAM AIRPOR, NL) observed 0655 UTC 17 January 2023
Temperature: 0.0°C (32°F)
Dewpoint: -2.0°C (28°F) [RH = 86%]
Pressure (altimeter): 29.11 inches Hg (986.0 mb)
Winds: from the WSW (240 degrees) at 6 MPH (5 knots; 2.6 m/s)
Visibility: 6 or more miles (10+ km)
Ceiling: at least 12,000 feet AGL
Clouds: sky clear below 12,000 feet AGL
Weather: no significant weather observed at this time

METAR text: EHRD 170625Z AUTO 24006KT 9999 NCD 01/M02 Q0986 NOSIG
Conditions at: EHRD (ROTTERDAM AIRPOR, NL) observed 0625 UTC 17 January 2023
Temperature: 1.0°C (34°F)
Dewpoint: -2.0°C (28°F) [RH = 80%]
Pressure (altimeter): 29.11 inches Hg (986.0 mb)
Winds: from the WSW (240 degrees) at 7 MPH (6 knots; 3.1 m/s)
Visibility: 6 or more miles (10+ km)
Ceiling: at least 12,000 feet AGL
Clouds: sky clear below 12,000 feet AGL
Weather: no significant weather observed at this time

Forecast for: EHRD (ROTTERDAM AIRPOR, NL)
Text: TAF EHRD 170511Z 1706/1812 24006KT 9999 FEW040
Forecast period: 0600 UTC 17 January 2023 to 0800 UTC 18 January 2023
Forecast type: FROM: standard forecast or significant change
Winds: from the WSW (240 degrees) at 7 MPH (6 knots; 3.1 m/s)
Visibility: 6 or more miles (10+ km)
Ceiling: at least 12,000 feet AGL
Clouds: few clouds at 4000 feet AGL
Weather: no significant weather forecast for this period
Text: BECMG 1808/1811 21014KT
Forecast period: 0800 to 1200 UTC 18 January 2023
Forecast type: BECOMING: Conditions expected to become as follows by 1100 UTC 18 January 2023
Winds: from the SSW (210 degrees) at 16 MPH (14 knots; 7.2 m/s)
Visibility: 6 or more miles (10+ km)
Ceiling: at least 12,000 feet AGL
Clouds: few clouds at 4000 feet AGL
Weather: no significant weather forecast for this period